Change the Weather History Date:

Saturday, October 20, 2012

  Actual Average (KUZA) Record (KUZA)
Temperature  
Mean Temperature 58 °F -  
Max Temperature 71 °F 69 °F 86 °F (1993)
Min Temperature 44 °F 47 °F 33 °F (1974)
Degree Days  
Heating Degree Days 8    
Growing Degree Days 8 (Base 50)    
Moisture  
Dew Point 42 °F    
Average Humidity 58    
Maximum Humidity 81    
Minimum Humidity 35    
Precipitation  
Precipitation 0.00 in - - ()
Sea Level Pressure  
Sea Level Pressure 29.86 in    
Wind  
Wind Speed 3 mph (WSW)    
Max Wind Speed 9 mph    
Max Gust Speed -    
Visibility 8 miles    
Events      
Averages and records for this station are not official NWS values.
T = Trace of Precipitation, MM = Missing Value Source: NWS Daily Summary

Daily Weather History Graph

Daily Weather History Graph

Search for Another Location

Airport or City:

Trip Planner

Search our weather history database for the weather conditions in past years. The results will help you decide how hot, cold, wet, or windy it might be!

Date:

Astronomy

Oct. 20, 2012 Rise Set
Actual Time 7:35 AM EDT 6:43 PM EDT
Civil Twilight 7:09 AM EDT 7:08 PM EDT
Nautical Twilight 6:40 AM EDT 7:38 PM EDT
Astronomical Twilight 6:10 AM EDT 8:07 PM EDT
Moon 1:02 PM EDT (10/20) 11:33 PM EDT (10/20)
Length of Visible Light 11h 59m
Length of Day
11h 08m
Waxing Crescent, 34% of the Moon is Illuminated
Oct 20
Waxing Crescent
Oct 21
First Quarter
Oct 29
Full
Nov 6
Last Quarter
Nov 13
New

Hourly Weather History & Observations

Time (EDT) Temp. Windchill Dew Point Humidity Pressure Visibility Wind Dir Wind Speed Gust Speed Precip Events Conditions
12:15 AM 51.8 °F - 37.4 °F 58% 29.80 in 7.0 mi SSW 3.5 mph - N/A   Clear
12:35 AM 51.8 °F - 39.2 °F 62% 29.80 in 7.0 mi SSW 3.5 mph - N/A   Clear
12:55 AM 51.8 °F - 37.4 °F 58% 29.80 in 10.0 mi SSW 3.5 mph - N/A   Clear
1:15 AM 51.8 °F - 37.4 °F 58% 29.81 in 7.0 mi SW 3.5 mph - N/A   Clear
1:35 AM 50.0 °F - 41.0 °F 71% 29.81 in 10.0 mi Calm Calm - N/A   Clear
1:55 AM 50.0 °F - 39.2 °F 66% 29.80 in 10.0 mi Calm Calm - N/A   Clear
2:15 AM 50.0 °F - 37.4 °F 62% 29.80 in 7.0 mi SW 3.5 mph - N/A   Clear
2:35 AM 50.0 °F - 37.4 °F 62% 29.80 in 10.0 mi SSW 3.5 mph - N/A   Clear
2:55 AM 50.0 °F - 37.4 °F 62% 29.80 in 7.0 mi SSW 4.6 mph - N/A   Clear
3:15 AM 50.0 °F - 37.4 °F 62% 29.80 in 7.0 mi SW 3.5 mph - N/A   Clear
3:35 AM 50.0 °F - 37.4 °F 62% 29.80 in 10.0 mi SW 3.5 mph - N/A   Clear
3:55 AM 48.2 °F - 37.4 °F 66% 29.80 in 7.0 mi SSW 3.5 mph - N/A   Clear
4:15 AM 48.2 °F - 37.4 °F 66% 29.80 in 10.0 mi SSW 3.5 mph - N/A   Clear
4:35 AM 46.4 °F 44.3 °F 39.2 °F 76% 29.79 in 7.0 mi SSW 4.6 mph - N/A   Clear
4:55 AM 46.4 °F - 37.4 °F 71% 29.79 in 7.0 mi Calm Calm - N/A   Clear
5:15 AM 46.4 °F 45.2 °F 39.2 °F 76% 29.80 in 7.0 mi SW 3.5 mph - N/A   Clear
5:35 AM 46.4 °F - 37.4 °F 71% 29.81 in 10.0 mi Calm Calm - N/A   Clear
5:55 AM 46.4 °F 45.2 °F 39.2 °F 76% 29.81 in 7.0 mi SW 3.5 mph - N/A   Clear
6:15 AM 46.4 °F 45.2 °F 37.4 °F 71% 29.81 in 10.0 mi SW 3.5 mph - N/A   Clear
6:35 AM 46.4 °F 45.2 °F 39.2 °F 76% 29.82 in 10.0 mi SW 3.5 mph - N/A   Clear
6:55 AM 46.4 °F 45.2 °F 37.4 °F 71% 29.82 in 10.0 mi SW 3.5 mph - N/A   Clear
7:15 AM 46.4 °F 45.2 °F 37.4 °F 71% 29.82 in 10.0 mi SW 3.5 mph - N/A   Clear
7:35 AM 46.4 °F 45.2 °F 37.4 °F 71% 29.83 in 7.0 mi SW 3.5 mph - N/A   Clear
7:55 AM 44.6 °F - 39.2 °F 81% 29.84 in 7.0 mi Calm Calm - N/A   Clear
8:15 AM 44.6 °F 43.1 °F 39.2 °F 81% 29.85 in 5.0 mi SW 3.5 mph - N/A   Haze
8:35 AM 48.2 °F - 41.0 °F 76% 29.86 in 7.0 mi SW 4.6 mph - N/A   Clear
8:55 AM 50.0 °F - 41.0 °F 71% 29.87 in 7.0 mi SW 3.5 mph - N/A   Clear
9:15 AM 51.8 °F - 42.8 °F 71% 29.88 in 5.0 mi SW 4.6 mph - N/A   Haze
9:35 AM 55.4 °F - 42.8 °F 63% 29.88 in 5.0 mi WSW 4.6 mph - N/A   Haze
9:55 AM 57.2 °F - 44.6 °F 63% 29.88 in 7.0 mi WSW 4.6 mph - N/A   Clear
10:15 AM 59.0 °F - 42.8 °F 55% 29.89 in 5.0 mi West 3.5 mph - N/A   Haze
10:35 AM 60.8 °F - 42.8 °F 52% 29.89 in 7.0 mi Calm Calm - N/A   Clear
10:55 AM 62.6 °F - 44.6 °F 52% 29.89 in 5.0 mi Calm Calm - N/A   Haze
11:15 AM 62.6 °F - 42.8 °F 48% 29.89 in 5.0 mi West 3.5 mph - N/A   Haze
11:35 AM 64.4 °F - 44.6 °F 49% 29.89 in 5.0 mi WNW 4.6 mph - N/A   Haze
11:55 AM 66.2 °F - 42.8 °F 43% 29.88 in 7.0 mi North 8.1 mph - N/A   Clear
12:15 PM 66.2 °F - 41.0 °F 40% 29.88 in 5.0 mi North 3.5 mph - N/A   Haze
12:35 PM 68.0 °F - 41.0 °F 37% 29.87 in 7.0 mi West 6.9 mph - N/A   Clear
12:55 PM 68.0 °F - 42.8 °F 40% 29.86 in 7.0 mi Calm Calm - N/A   Clear
1:15 PM 68.0 °F - 41.0 °F 37% 29.86 in 7.0 mi West 6.9 mph - N/A   Clear
1:35 PM 69.8 °F - 42.8 °F 38% 29.86 in 7.0 mi West 5.8 mph - N/A   Clear
1:55 PM 69.8 °F - 42.8 °F 38% 29.85 in 7.0 mi West 4.6 mph - N/A   Clear
2:15 PM 69.8 °F - 42.8 °F 38% 29.84 in 7.0 mi WNW 4.6 mph - N/A   Clear
2:35 PM 69.8 °F - 42.8 °F 38% 29.84 in 4.0 mi SW 5.8 mph - N/A   Haze
2:55 PM 69.8 °F - 42.8 °F 38% 29.84 in 7.0 mi SW 5.8 mph - N/A   Clear
3:15 PM 71.6 °F - 42.8 °F 35% 29.84 in 10.0 mi WSW 4.6 mph - N/A   Clear
3:35 PM 71.6 °F - 42.8 °F 35% 29.84 in 7.0 mi SSW 5.8 mph - N/A   Clear
3:55 PM 71.6 °F - 42.8 °F 35% 29.83 in 7.0 mi WSW 5.8 mph - N/A   Clear
4:15 PM 69.8 °F - 42.8 °F 38% 29.84 in 7.0 mi WSW 6.9 mph - N/A   Clear
4:35 PM 69.8 °F - 42.8 °F 38% 29.84 in 7.0 mi Calm Calm - N/A   Clear
4:55 PM 69.8 °F - 42.8 °F 38% 29.85 in 7.0 mi WSW 5.8 mph - N/A   Clear
5:15 PM 69.8 °F - 42.8 °F 38% 29.86 in 7.0 mi Calm Calm - N/A   Clear
5:35 PM 68.0 °F - 44.6 °F 43% 29.86 in 7.0 mi West 3.5 mph - N/A   Clear
5:55 PM 68.0 °F - 46.4 °F 46% 29.86 in 7.0 mi Calm Calm - N/A   Clear
6:15 PM 64.4 °F - 46.4 °F 52% 29.86 in 7.0 mi Calm Calm - N/A   Clear
6:35 PM 62.6 °F - 48.2 °F 59% 29.87 in 10.0 mi Calm Calm - N/A   Clear
6:55 PM 60.8 °F - 50.0 °F 68% 29.88 in 10.0 mi Calm Calm - N/A   Clear
7:15 PM 60.8 °F - 50.0 °F 68% 29.89 in 10.0 mi Calm Calm - N/A   Clear
7:35 PM 60.8 °F - 48.2 °F 63% 29.90 in 10.0 mi Calm Calm - N/A   Clear
7:55 PM 60.8 °F - 46.4 °F 59% 29.91 in 10.0 mi NW 4.6 mph - N/A   Clear
8:15 PM 60.8 °F - 46.4 °F 59% 29.91 in 7.0 mi NW 3.5 mph - N/A   Clear
8:35 PM 59.0 °F - 48.2 °F 67% 29.92 in 10.0 mi North 3.5 mph - N/A   Clear
8:55 PM 59.0 °F - 46.4 °F 63% 29.92 in 10.0 mi Calm Calm - N/A   Clear
9:15 PM 57.2 °F - 46.4 °F 67% 29.94 in 10.0 mi North 9.2 mph - N/A   Clear
9:35 PM 59.0 °F - 46.4 °F 63% 29.95 in 10.0 mi North 8.1 mph - N/A   Clear
9:55 PM 59.0 °F - 46.4 °F 63% 29.96 in 10.0 mi North 8.1 mph - N/A   Clear
10:15 PM 55.4 °F - 44.6 °F 67% 29.96 in 10.0 mi North 6.9 mph - N/A   Clear
10:35 PM 55.4 °F - 44.6 °F 67% 29.96 in 7.0 mi NNE 5.8 mph - N/A   Clear
10:55 PM 53.6 °F - 44.6 °F 72% 29.97 in 10.0 mi NE 5.8 mph - N/A   Clear
11:15 PM 55.4 °F - 44.6 °F 67% 29.97 in 7.0 mi NNE 5.8 mph - N/A   Clear
11:35 PM 53.6 °F - 44.6 °F 72% 29.97 in 10.0 mi NNE 5.8 mph - N/A   Clear
11:55 PM 53.6 °F - 44.6 °F 72% 29.98 in 10.0 mi NNE 4.6 mph - N/A   Clear